createdAt,value
2016-08-27T00:00:38.899Z,99.99
2016-08-27T00:01:38.902Z,99.99
2016-08-27T00:02:38.901Z,99.99
2016-08-27T00:03:38.832Z,99.99
2016-08-27T00:04:38.916Z,99.99
2016-08-27T00:05:38.819Z,99.99
2016-08-27T00:06:38.820Z,99.99
2016-08-27T00:07:38.899Z,99.99
2016-08-27T00:08:38.833Z,99.99
2016-08-27T00:09:38.923Z,99.99
2016-08-27T00:10:38.837Z,99.99
2016-08-27T00:11:38.833Z,99.99
2016-08-27T00:12:38.906Z,99.99
2016-08-27T00:13:38.907Z,99.99
2016-08-27T00:14:38.912Z,99.99
2016-08-27T00:15:38.912Z,99.99
2016-08-27T00:16:38.854Z,99.99
2016-08-27T00:17:38.919Z,99.99
2016-08-27T00:18:38.840Z,99.99
2016-08-27T00:19:38.849Z,99.99
2016-08-27T00:20:38.852Z,99.99
2016-08-27T00:21:38.859Z,99.99
2016-08-27T00:22:38.846Z,99.99
2016-08-27T00:23:38.925Z,99.99
2016-08-27T00:25:40.654Z,99.99
2016-08-27T00:26:38.935Z,99.99
2016-08-27T00:27:39.039Z,99.99
2016-08-27T00:28:38.939Z,99.99
2016-08-27T00:29:38.945Z,99.99
2016-08-27T00:30:38.866Z,99.99
2016-08-27T00:31:38.933Z,99.99
2016-08-27T00:32:38.938Z,99.99
2016-08-27T00:33:38.860Z,99.99
2016-08-27T00:34:38.867Z,99.99
2016-08-27T00:35:38.871Z,99.99
2016-08-27T00:36:38.937Z,99.99
2016-08-27T00:37:38.932Z,99.99
2016-08-27T00:38:38.938Z,99.99
2016-08-27T00:39:38.949Z,99.99
2016-08-27T00:40:38.942Z,99.99
2016-08-27T00:41:38.953Z,99.99
2016-08-27T00:42:38.883Z,99.99
2016-08-27T00:43:38.965Z,99.99
2016-08-27T00:44:38.947Z,99.99
2016-08-27T00:45:38.876Z,99.99
2016-08-27T00:46:38.976Z,99.99
2016-08-27T00:47:38.893Z,99.99
2016-08-27T00:48:38.890Z,99.99
2016-08-27T00:49:38.891Z,99.99
2016-08-27T00:50:38.885Z,99.99
2016-08-27T00:51:38.951Z,99.99
2016-08-27T00:52:38.887Z,99.99
2016-08-27T00:53:38.896Z,99.99
2016-08-27T00:54:38.900Z,99.99
2016-08-27T00:55:38.892Z,99.99
2016-08-27T00:56:38.894Z,99.99
2016-08-27T00:57:38.966Z,99.99
2016-08-27T00:58:38.973Z,99.99
2016-08-27T00:59:38.893Z,99.99
2016-08-27T01:00:38.909Z,99.99
2016-08-27T01:01:38.984Z,99.99
2016-08-27T01:02:38.979Z,99.99
2016-08-27T01:03:38.977Z,99.99
2016-08-27T01:04:38.915Z,99.99
2016-08-27T01:05:38.907Z,99.99
2016-08-27T01:06:38.989Z,99.99
2016-08-27T01:07:38.912Z,99.99
2016-08-27T01:08:38.910Z,99.99
2016-08-27T01:09:38.908Z,99.99
2016-08-27T01:10:38.994Z,99.99
2016-08-27T01:11:38.924Z,99.99
2016-08-27T01:12:38.910Z,99.99
2016-08-27T01:13:38.948Z,99.99
2016-08-27T01:14:38.993Z,99.99
2016-08-27T01:15:38.929Z,99.99
2016-08-27T01:16:38.918Z,99.99
2016-08-27T01:17:39.004Z,99.99
2016-08-27T01:18:38.999Z,99.99
2016-08-27T01:19:39.003Z,99.99
2016-08-27T01:20:39.005Z,99.99
2016-08-27T01:21:38.932Z,99.99
2016-08-27T01:22:38.936Z,99.99
2016-08-27T01:23:39.005Z,99.99
2016-08-27T01:24:39.013Z,99.99
2016-08-27T01:25:38.934Z,99.99
2016-08-27T01:26:38.935Z,99.99
2016-08-27T01:27:38.941Z,99.99
2016-08-27T01:28:39.022Z,99.99
2016-08-27T01:29:39.014Z,99.99
2016-08-27T01:30:39.020Z,99.99
2016-08-27T01:31:39.024Z,99.99
2016-08-27T01:32:39.066Z,99.99
2016-08-27T01:33:39.016Z,99.99
2016-08-27T01:34:39.023Z,99.99
2016-08-27T01:35:39.027Z,99.99
2016-08-27T01:36:39.021Z,99.99
2016-08-27T01:37:38.954Z,99.99
2016-08-27T01:38:39.024Z,99.99
2016-08-27T01:39:38.949Z,99.99
2016-08-27T01:40:39.034Z,99.99
2016-08-27T01:41:39.027Z,99.99
2016-08-27T01:42:38.967Z,99.99
2016-08-27T01:43:38.961Z,99.99
2016-08-27T01:44:39.032Z,99.99
2016-08-27T01:45:38.962Z,99.99
2016-08-27T01:46:39.043Z,99.99
2016-08-27T01:47:39.043Z,99.99
2016-08-27T01:48:39.035Z,99.99
2016-08-27T01:49:39.041Z,99.99
2016-08-27T01:50:38.984Z,99.99
2016-08-27T01:51:39.043Z,99.99
2016-08-27T01:52:38.972Z,99.99
2016-08-27T01:53:38.979Z,99.99
2016-08-27T01:54:39.040Z,99.99
2016-08-27T01:55:39.065Z,99.99
2016-08-27T01:56:38.983Z,99.99
2016-08-27T01:57:39.058Z,99.99
2016-08-27T01:58:38.977Z,99.99
2016-08-27T01:59:38.981Z,99.99
2016-08-27T02:00:38.979Z,99.99
2016-08-27T02:01:39.070Z,99.99
2016-08-27T02:02:39.069Z,99.99
2016-08-27T02:03:38.986Z,99.99
2016-08-27T02:04:39.058Z,99.99
2016-08-27T02:05:38.994Z,99.99
2016-08-27T02:06:39.066Z,99.99
2016-08-27T02:07:38.986Z,99.99
2016-08-27T02:08:38.992Z,99.99
2016-08-27T02:09:38.996Z,99.99
2016-08-27T02:10:38.996Z,99.99
2016-08-27T02:11:39.067Z,99.99
2016-08-27T02:12:39.077Z,99.99
2016-08-27T02:13:39.079Z,99.99
2016-08-27T02:14:39.075Z,99.99
2016-08-27T02:15:39.016Z,99.99
2016-08-27T02:16:39.081Z,99.99
2016-08-27T02:17:39.085Z,99.99
2016-08-27T02:18:39.071Z,99.99
2016-08-27T02:19:39.079Z,99.99
2016-08-27T02:20:39.010Z,99.99
2016-08-27T02:21:39.084Z,99.99
2016-08-27T02:22:39.114Z,99.99
2016-08-27T02:23:39.012Z,99.99
2016-08-27T02:24:39.019Z,99.99
2016-08-27T02:25:39.099Z,99.99
2016-08-27T02:26:39.024Z,99.99
2016-08-27T02:27:39.014Z,99.99
2016-08-27T02:28:39.091Z,99.99
2016-08-27T02:29:39.102Z,99.99
2016-08-27T02:30:39.021Z,99.99
2016-08-27T02:31:39.024Z,99.99
2016-08-27T02:32:39.034Z,99.99
2016-08-27T02:33:39.101Z,99.99
2016-08-27T02:34:39.119Z,99.99
2016-08-27T02:35:39.112Z,99.99
2016-08-27T02:36:39.114Z,99.99
2016-08-27T02:37:39.106Z,99.99
2016-08-27T02:38:39.036Z,99.99
2016-08-27T02:39:39.031Z,99.99
2016-08-27T02:40:39.038Z,99.99
2016-08-27T02:41:39.036Z,99.99
2016-08-27T02:42:39.037Z,99.99
2016-08-27T02:43:39.117Z,99.99
2016-08-27T02:44:39.040Z,99.99
2016-08-27T02:45:39.116Z,99.99
2016-08-27T02:46:39.124Z,99.99
2016-08-27T02:47:39.131Z,99.99
2016-08-27T02:48:39.125Z,99.99
2016-08-27T02:49:39.060Z,99.99
2016-08-27T02:50:39.120Z,99.99
2016-08-27T02:51:39.134Z,99.99
2016-08-27T02:52:39.133Z,99.99
2016-08-27T02:53:39.140Z,99.99
2016-08-27T02:54:39.061Z,99.99
2016-08-27T02:55:39.133Z,99.99
2016-08-27T02:56:39.063Z,99.99
2016-08-27T02:57:39.063Z,99.99
2016-08-27T02:58:39.130Z,99.99
2016-08-27T02:59:39.063Z,99.99
2016-08-27T03:00:39.146Z,99.99
2016-08-27T03:01:39.146Z,99.99
2016-08-27T03:02:39.137Z,99.99
2016-08-27T03:03:39.075Z,99.99
2016-08-27T03:05:39.221Z,99.99
2016-08-27T03:06:39.071Z,99.99
2016-08-27T03:07:39.146Z,99.99
2016-08-27T03:08:39.154Z,99.99
2016-08-27T03:09:39.084Z,99.99
2016-08-27T03:10:39.166Z,99.99
2016-08-27T03:11:39.085Z,99.99
2016-08-27T03:12:39.080Z,99.99
2016-08-27T03:13:39.089Z,99.99
2016-08-27T03:14:39.155Z,99.99
2016-08-27T03:15:39.082Z,99.99
2016-08-27T03:16:39.081Z,99.99
2016-08-27T03:17:39.167Z,99.99
2016-08-27T03:18:39.093Z,99.99
2016-08-27T03:19:39.090Z,99.99
2016-08-27T03:20:39.087Z,99.99
2016-08-27T03:21:39.167Z,99.99
2016-08-27T03:22:39.114Z,99.99
2016-08-27T03:23:39.093Z,99.99
2016-08-27T03:24:39.169Z,99.99
2016-08-27T03:25:39.168Z,99.99
2016-08-27T03:26:39.174Z,99.99
2016-08-27T03:27:39.170Z,99.99
2016-08-27T03:28:39.292Z,99.99
2016-08-27T03:29:39.181Z,99.99
2016-08-27T03:30:39.104Z,99.99
2016-08-27T03:31:39.188Z,99.99
2016-08-27T03:32:39.116Z,99.99
2016-08-27T03:33:39.183Z,99.99
2016-08-27T03:34:39.196Z,99.99
2016-08-27T03:35:39.187Z,99.99
2016-08-27T03:36:39.195Z,99.99
2016-08-27T03:37:39.115Z,99.99
2016-08-27T03:38:39.115Z,99.99
2016-08-27T03:39:39.189Z,99.99
2016-08-27T03:40:39.194Z,99.99
2016-08-27T03:41:39.122Z,99.99
2016-08-27T03:42:39.195Z,99.99
2016-08-27T03:43:39.123Z,99.99
2016-08-27T03:44:39.130Z,99.99
2016-08-27T03:45:39.132Z,99.99
2016-08-27T03:46:39.203Z,99.99
2016-08-27T03:47:39.211Z,99.99
2016-08-27T03:48:39.133Z,99.99
2016-08-27T03:49:39.134Z,99.99
2016-08-27T03:50:39.206Z,99.99
2016-08-27T03:51:39.211Z,99.99
2016-08-27T03:52:39.145Z,99.99
2016-08-27T03:53:39.234Z,99.99
2016-08-27T03:54:39.219Z,99.99
2016-08-27T03:55:39.145Z,99.99
2016-08-27T03:56:39.140Z,99.99
2016-08-27T03:57:39.148Z,99.99
2016-08-27T03:58:39.242Z,99.99
2016-08-27T03:59:39.220Z,99.99
2016-08-27T04:00:39.154Z,99.99
2016-08-27T04:01:39.153Z,99.99
2016-08-27T04:02:39.170Z,99.99
2016-08-27T04:03:39.158Z,99.99
2016-08-27T04:04:39.223Z,99.99
2016-08-27T04:05:39.157Z,99.99
2016-08-27T04:06:39.228Z,99.99
2016-08-27T04:07:39.237Z,99.99
2016-08-27T04:08:39.235Z,99.99
2016-08-27T04:09:39.162Z,99.99
2016-08-27T04:10:39.821Z,99.99
2016-08-27T04:11:39.306Z,99.99
2016-08-27T04:12:39.252Z,99.99
2016-08-27T04:13:39.251Z,99.99
2016-08-27T04:14:39.246Z,99.99
2016-08-27T04:15:39.244Z,99.99
2016-08-27T04:16:39.243Z,99.99
2016-08-27T04:17:39.163Z,99.99
2016-08-27T04:18:39.165Z,99.99
2016-08-27T04:19:39.168Z,99.99
2016-08-27T04:20:39.175Z,99.99
2016-08-27T04:21:39.251Z,99.99
2016-08-27T04:22:39.254Z,99.99
2016-08-27T04:23:39.182Z,99.99
2016-08-27T04:24:39.199Z,99.99
2016-08-27T04:25:39.271Z,99.99
2016-08-27T04:26:39.260Z,99.99
2016-08-27T04:27:39.259Z,99.99
2016-08-27T04:28:39.182Z,99.99
2016-08-27T04:29:39.195Z,99.99
2016-08-27T04:30:39.259Z,99.99
2016-08-27T04:31:39.267Z,99.99
2016-08-27T04:32:39.189Z,99.99
2016-08-27T04:33:39.198Z,99.99
2016-08-27T04:34:39.196Z,99.99
2016-08-27T04:35:39.201Z,99.99
2016-08-27T04:36:39.282Z,99.99
2016-08-27T04:37:39.197Z,99.99
2016-08-27T04:38:39.291Z,99.99
2016-08-27T04:39:39.199Z,99.99
2016-08-27T04:40:39.202Z,99.99
2016-08-27T04:41:39.201Z,99.99
2016-08-27T04:42:39.207Z,99.99
2016-08-27T04:43:39.290Z,99.99
2016-08-27T04:44:39.289Z,99.99
2016-08-27T04:45:39.340Z,99.99
2016-08-27T04:46:39.231Z,99.99
2016-08-27T04:47:39.292Z,99.99
2016-08-27T04:48:39.305Z,99.99
2016-08-27T04:49:39.292Z,99.99
2016-08-27T04:50:39.217Z,99.99
2016-08-27T04:51:39.216Z,99.99
2016-08-27T04:52:39.212Z,99.99
2016-08-27T04:53:39.227Z,99.99
2016-08-27T04:54:39.236Z,99.99
2016-08-27T04:55:39.218Z,99.99
2016-08-27T04:56:39.222Z,99.99
2016-08-27T04:57:39.326Z,99.99
2016-08-27T04:58:39.221Z,99.99
2016-08-27T04:59:39.319Z,99.99
2016-08-27T05:00:39.307Z,99.99
2016-08-27T05:01:39.307Z,99.99
2016-08-27T05:02:39.234Z,99.99
2016-08-27T05:03:39.300Z,99.99
2016-08-27T05:04:39.237Z,99.99
2016-08-27T05:05:39.306Z,99.99
2016-08-27T05:06:39.234Z,99.99
2016-08-27T05:07:39.247Z,99.99
2016-08-27T05:08:39.253Z,99.99
2016-08-27T05:09:39.253Z,99.99
2016-08-27T05:10:39.320Z,99.99
2016-08-27T05:11:39.315Z,99.99
2016-08-27T05:12:39.316Z,99.99
2016-08-27T05:13:39.249Z,99.99
2016-08-27T05:14:39.251Z,99.99
2016-08-27T05:15:39.254Z,99.99
2016-08-27T05:16:39.244Z,99.99
2016-08-27T05:17:39.251Z,99.99
2016-08-27T05:18:39.330Z,99.99
2016-08-27T05:19:39.255Z,99.99
2016-08-27T05:20:39.253Z,99.99
2016-08-27T05:21:39.335Z,99.99
2016-08-27T05:22:39.259Z,99.99
2016-08-27T05:23:39.337Z,99.99
2016-08-27T05:24:39.257Z,99.99
2016-08-27T05:25:39.269Z,99.99
2016-08-27T05:26:39.260Z,99.99
2016-08-27T05:27:39.268Z,99.99
2016-08-27T05:28:39.270Z,99.99
2016-08-27T05:29:39.268Z,99.99
2016-08-27T05:30:39.341Z,99.99
2016-08-27T05:31:39.348Z,99.99
2016-08-27T05:32:39.353Z,99.99
2016-08-27T05:33:39.347Z,99.99
2016-08-27T05:34:39.278Z,99.99
2016-08-27T05:35:39.273Z,99.99
2016-08-27T05:36:39.274Z,99.99
2016-08-27T05:37:39.291Z,99.99
2016-08-27T05:38:39.298Z,99.99
2016-08-27T05:39:39.294Z,99.99
2016-08-27T05:40:39.303Z,99.99
2016-08-27T05:41:39.285Z,99.99
2016-08-27T05:42:39.362Z,99.99
2016-08-27T05:43:39.354Z,99.99
2016-08-27T05:44:39.363Z,99.99
2016-08-27T05:45:39.368Z,99.99
2016-08-27T05:46:39.374Z,99.99
2016-08-27T05:47:39.307Z,99.99
2016-08-27T05:48:39.373Z,99.99
2016-08-27T05:49:39.371Z,99.99
2016-08-27T05:50:39.303Z,99.99
2016-08-27T05:51:39.379Z,99.99
2016-08-27T05:52:39.301Z,99.99
2016-08-27T05:53:39.398Z,99.99
2016-08-27T05:54:39.379Z,99.99
2016-08-27T05:55:39.394Z,99.99
2016-08-27T05:56:39.387Z,99.99
2016-08-27T05:57:39.315Z,99.99
2016-08-27T05:58:39.383Z,99.99
2016-08-27T05:59:39.319Z,99.99
2016-08-27T06:00:39.829Z,99.99
2016-08-27T12:10:40.668Z,53.36
2016-08-27T18:30:41.257Z,82.21
2016-08-27T18:31:40.957Z,83.18
2016-08-27T18:32:40.960Z,82.99
2016-08-27T18:33:40.955Z,83.47
2016-08-27T18:34:41.022Z,82.89
2016-08-27T18:35:40.958Z,82.89
2016-08-27T18:36:41.023Z,83.09
2016-08-27T18:37:41.026Z,83.53
2016-08-27T18:38:40.948Z,83.82
2016-08-27T18:39:40.953Z,83.82
2016-08-27T18:40:40.956Z,83.44
2016-08-27T18:41:41.032Z,83.72
2016-08-27T18:42:41.007Z,83.92
2016-08-27T18:43:40.960Z,84.6
2016-08-27T18:44:40.969Z,84.7
2016-08-27T18:45:41.033Z,85.28
2016-08-27T18:46:41.048Z,85.08
2016-08-27T18:47:40.968Z,84.99
2016-08-27T18:48:40.972Z,84.79
2016-08-27T18:49:41.060Z,84.85
2016-08-27T18:50:40.966Z,85.38
2016-08-27T18:51:41.044Z,85.24
2016-08-27T18:52:40.973Z,85.57
2016-08-27T18:53:40.990Z,85.67
2016-08-27T18:54:40.971Z,85.77
2016-08-27T18:55:40.975Z,85.63
2016-08-27T18:56:40.981Z,85.63
2016-08-27T18:57:41.065Z,86.3
2016-08-27T18:58:40.981Z,86.69
2016-08-27T18:59:40.981Z,86.6
2016-08-27T19:00:41.057Z,86.5
2016-08-27T19:01:41.080Z,86.55
2016-08-27T19:02:41.008Z,87.23
2016-08-27T19:03:41.075Z,86.94
2016-08-27T19:04:41.056Z,87.04
2016-08-27T19:05:41.069Z,86.46
2016-08-27T19:06:41.063Z,86.55
2016-08-27T19:07:41.019Z,86.65
2016-08-27T19:08:41.079Z,86.55
2016-08-27T19:09:41.072Z,87.04
2016-08-27T19:10:41.001Z,87.23
2016-08-27T19:11:40.996Z,86.94
2016-08-27T19:12:40.998Z,86.94
2016-08-27T19:13:41.072Z,86.75
2016-08-27T19:14:41.091Z,86.94
2016-08-27T19:15:41.085Z,86.94
2016-08-27T19:16:41.016Z,87.13
2016-08-27T19:17:41.013Z,87.38
2016-08-27T19:18:41.014Z,87.13
2016-08-27T19:19:41.013Z,87.87
2016-08-27T19:20:41.042Z,87.77
2016-08-27T19:21:41.092Z,87.23
2016-08-27T19:22:41.135Z,87.19
2016-08-27T19:23:41.138Z,87.33
2016-08-27T19:24:41.015Z,87.29
2016-08-27T19:25:41.111Z,87.48
2016-08-27T19:26:41.094Z,87.43
2016-08-27T19:27:41.029Z,87.29
2016-08-27T19:28:41.028Z,87.09
2016-08-27T19:29:41.029Z,87.58
2016-08-27T19:30:41.027Z,87.19
2016-08-27T19:31:41.107Z,87.68
2016-08-27T19:32:41.098Z,88.06
2016-08-27T19:33:41.029Z,87.68
2016-08-27T19:34:41.105Z,87.77
2016-08-27T19:35:41.039Z,88.16
2016-08-27T19:36:41.114Z,88.06
2016-08-27T19:37:41.032Z,88.26
2016-08-27T19:38:41.038Z,88.06
2016-08-27T19:39:41.119Z,88.21
2016-08-27T19:40:41.127Z,88.6
2016-08-27T19:41:41.052Z,88.79
2016-08-27T19:42:41.057Z,88.89
2016-08-27T19:43:41.055Z,88.99
2016-08-27T19:44:41.050Z,89.18
2016-08-27T19:45:41.122Z,89.18
2016-08-27T19:46:41.128Z,89.09
2016-08-27T19:47:41.061Z,89.28
2016-08-27T19:48:41.131Z,88.99
2016-08-27T19:49:41.055Z,89.18
2016-08-27T19:50:41.141Z,88.7
2016-08-27T19:51:41.070Z,88.79
2016-08-27T19:52:41.139Z,88.79
2016-08-27T19:53:41.075Z,88.21
2016-08-27T19:54:41.147Z,88.31
2016-08-27T19:55:41.063Z,88.45
2016-08-27T19:56:41.076Z,88.06
2016-08-27T19:57:41.149Z,88.06
2016-08-27T19:58:41.066Z,88.06
2016-08-27T19:59:41.065Z,87.73
2016-08-27T20:00:41.137Z,87.92
2016-08-27T20:01:41.155Z,88.06
2016-08-27T20:02:41.148Z,87.68
2016-08-27T20:03:41.076Z,87.82
2016-08-27T20:04:41.166Z,87.68
2016-08-27T20:05:41.155Z,87.54
2016-08-27T20:06:41.087Z,87.77
2016-08-27T20:07:41.083Z,88.06
2016-08-27T20:08:41.084Z,87.19
2016-08-27T20:09:41.091Z,87.77
2016-08-27T20:10:41.090Z,87.96
2016-08-27T20:11:41.167Z,87.19
2016-08-27T20:12:41.083Z,86.99
2016-08-27T20:13:41.090Z,86.9
2016-08-27T20:14:41.161Z,86.8
2016-08-27T20:15:41.171Z,87.09
2016-08-27T20:16:41.097Z,87.19
2016-08-27T20:17:41.221Z,87.09
2016-08-27T20:18:41.096Z,86.51
2016-08-27T20:19:41.176Z,87.19
2016-08-27T20:20:41.169Z,87.68
2016-08-27T20:21:41.179Z,87.68
2016-08-27T20:22:41.183Z,88.45
2016-08-27T20:23:41.114Z,88.35
2016-08-27T20:24:41.732Z,87.82
2016-08-27T20:25:41.105Z,87.96
2016-08-27T20:26:41.109Z,87.96
2016-08-27T20:27:41.105Z,87.38
2016-08-27T20:28:41.192Z,87.29
2016-08-27T20:29:41.108Z,87.29
2016-08-27T20:30:41.187Z,86.8
2016-08-27T20:31:41.114Z,86.32
2016-08-27T20:32:41.195Z,86.41
2016-08-27T20:33:41.129Z,86.32
2016-08-27T20:34:41.133Z,86.41
2016-08-27T20:35:41.129Z,86.22
2016-08-27T20:36:41.147Z,85.93
2016-08-27T20:37:41.138Z,85.93
2016-08-27T20:38:41.137Z,86.02
2016-08-27T20:39:41.131Z,86.22
2016-08-27T20:40:41.258Z,86.61
2016-08-27T20:41:41.189Z,86.41
2016-08-27T20:42:41.271Z,86.32
2016-08-27T20:43:41.286Z,86.71
2016-08-27T20:44:41.280Z,86.8
2016-08-27T20:45:41.279Z,86.51
2016-08-27T20:46:41.225Z,86.12
2016-08-27T20:47:41.192Z,86.8
2016-08-27T20:48:41.277Z,86.99
2016-08-27T20:49:41.277Z,87.38
2016-08-27T20:50:41.291Z,87.73
2016-08-27T20:51:41.295Z,88.21
2016-08-27T20:52:41.299Z,88.89
2016-08-27T20:53:41.270Z,89.37
2016-08-27T20:54:41.214Z,89.96
2016-08-27T20:55:41.235Z,90.54
2016-08-27T20:56:41.225Z,91.61
2016-08-27T20:57:41.208Z,90.34
2016-08-27T20:58:41.291Z,89.33
2016-08-27T20:59:41.280Z,88.85
2016-08-27T21:00:41.302Z,88.27
2016-08-27T21:01:41.216Z,87.88
2016-08-27T21:02:41.235Z,87.63
2016-08-27T21:03:41.296Z,87.01
2016-08-27T21:04:41.217Z,87.78
2016-08-27T21:05:41.312Z,88.17
2016-08-27T21:06:41.236Z,87.68
2016-08-27T21:07:41.412Z,88.17
2016-08-27T21:08:41.231Z,88.37
2016-08-27T21:09:41.873Z,89.04
2016-08-27T21:10:41.309Z,88.81
2016-08-27T21:11:41.309Z,88.85
2016-08-27T21:12:41.315Z,90.55
2016-08-27T21:13:41.247Z,89.97
2016-08-27T21:14:41.239Z,90.06
2016-08-27T21:15:41.305Z,89.68
2016-08-27T21:16:41.253Z,89.87
2016-08-27T21:17:41.321Z,88.81
2016-08-27T21:18:41.341Z,88.9
2016-08-27T21:19:41.268Z,88.61
2016-08-27T21:20:41.328Z,89.63
2016-08-27T21:21:41.280Z,90.31
2016-08-27T21:22:41.250Z,90.31
2016-08-27T21:23:41.247Z,90.94
2016-08-27T21:24:41.265Z,91.04
2016-08-27T21:25:41.261Z,91.42
2016-08-27T21:26:41.246Z,88.91
2016-08-27T21:27:41.260Z,86.49
2016-08-27T21:28:41.345Z,86.34
2016-08-27T21:29:41.248Z,84.21
2016-08-27T21:30:41.253Z,83.53
2016-08-27T21:31:41.461Z,82.9
2016-08-27T21:32:41.280Z,81.45
2016-08-27T21:33:41.278Z,80.47
2016-08-27T21:34:41.293Z,79.41
2016-08-27T21:35:41.289Z,78.77
2016-08-27T21:36:41.270Z,78.87
2016-08-27T21:37:41.335Z,78.67
2016-08-27T21:38:41.259Z,78.33
2016-08-27T21:39:41.273Z,78.13
2016-08-27T21:40:41.216Z,77.36
2016-08-27T21:41:41.289Z,76.87
2016-08-27T21:42:41.291Z,75.9
2016-08-27T21:43:41.288Z,77.29
2016-08-27T21:44:41.224Z,78.33
2016-08-27T21:45:41.295Z,78.42
2016-08-27T21:46:41.237Z,77.36
2016-08-27T21:47:41.236Z,75.65
2016-08-27T21:48:41.311Z,77.67
2016-08-27T21:49:41.229Z,76.85
2016-08-27T21:50:41.234Z,76.81
2016-08-27T21:51:41.237Z,78.66
2016-08-27T21:52:41.244Z,76.72
2016-08-27T21:53:41.312Z,74
2016-08-27T21:54:41.245Z,72.61
2016-08-27T21:55:41.324Z,73.62
2016-08-27T21:56:41.318Z,75.47
2016-08-27T21:57:41.317Z,76.75
2016-08-27T21:58:41.247Z,77.29
2016-08-27T21:59:41.242Z,77.75
2016-08-27T22:00:41.312Z,78.33
2016-08-27T22:01:41.330Z,79.2
2016-08-27T22:02:41.324Z,80.07
2016-08-27T22:03:41.264Z,80.52
2016-08-27T22:04:41.323Z,81.48
2016-08-27T22:05:41.251Z,82.07
2016-08-27T22:06:41.252Z,81.93
2016-08-27T22:07:41.254Z,81.25
2016-08-27T22:08:41.260Z,80.47
2016-08-27T22:09:41.256Z,80.71
2016-08-27T22:10:41.343Z,80.52
2016-08-27T22:11:41.346Z,80.19
2016-08-27T22:12:41.259Z,79.74
2016-08-27T22:13:41.265Z,79.45
2016-08-27T22:14:41.347Z,79.93
2016-08-27T22:15:41.261Z,80.42
2016-08-27T22:16:41.374Z,80.67
2016-08-27T22:17:41.270Z,81.73
2016-08-27T22:18:41.349Z,81.93
2016-08-27T22:19:41.356Z,82.32
2016-08-27T22:20:41.280Z,82.12
2016-08-27T22:21:41.353Z,82.03
2016-08-27T22:22:41.278Z,82.12
2016-08-27T22:23:42.168Z,82.12
2016-08-27T22:24:41.360Z,81.98
2016-08-27T22:25:41.290Z,82.41
2016-08-27T22:26:41.365Z,83.05
2016-08-27T22:27:41.295Z,83.34
2016-08-27T22:28:41.297Z,83.63
2016-08-27T22:29:41.363Z,82.86
2016-08-27T22:30:41.359Z,82.66
2016-08-27T22:31:41.299Z,82.37
2016-08-27T22:32:41.357Z,82.12
2016-08-27T22:33:41.298Z,82.37
2016-08-27T22:34:41.294Z,81.3
2016-08-27T22:35:41.372Z,81.73
2016-08-27T22:36:41.303Z,80.87
2016-08-27T22:37:41.303Z,81.45
2016-08-27T22:38:41.375Z,81.15
2016-08-27T22:39:41.373Z,81.64
2016-08-27T22:40:41.378Z,81.93
2016-08-27T22:41:41.310Z,81.25
2016-08-27T22:42:41.317Z,81.35
2016-08-27T22:43:41.305Z,81.25
2016-08-27T22:44:41.390Z,81.64
2016-08-27T22:45:41.470Z,82.22
2016-08-27T22:46:41.462Z,82.03
2016-08-27T22:47:41.473Z,82.7
2016-08-27T22:48:41.461Z,82.41
2016-08-27T22:49:41.387Z,82.51
2016-08-27T22:50:41.416Z,83.28
2016-08-27T22:51:41.319Z,83.63
2016-08-27T22:52:41.329Z,83.63
2016-08-27T22:53:41.410Z,84.21
2016-08-27T22:54:41.323Z,84.6
2016-08-27T22:55:41.402Z,85.37
2016-08-27T22:56:41.334Z,85.91
2016-08-27T22:57:41.403Z,86.2
2016-08-27T22:58:41.332Z,86.59
2016-08-27T22:59:41.335Z,86.3
2016-08-27T23:00:41.408Z,86.78
2016-08-27T23:01:41.332Z,86.98
2016-08-27T23:02:41.341Z,87.65
2016-08-27T23:03:41.332Z,87.95
2016-08-27T23:04:41.341Z,88.04
2016-08-27T23:05:41.345Z,88.09
2016-08-27T23:06:41.413Z,88.57
2016-08-27T23:07:41.338Z,87.9
2016-08-27T23:08:41.337Z,87.71
2016-08-27T23:09:41.422Z,88.19
2016-08-27T23:10:41.418Z,88.67
2016-08-27T23:11:41.466Z,89.15
2016-08-27T23:12:41.354Z,88.96
2016-08-27T23:13:41.429Z,89.25
2016-08-27T23:14:41.352Z,90.03
2016-08-27T23:15:41.358Z,90.32
2016-08-27T23:16:41.357Z,89.64
2016-08-27T23:17:41.423Z,89.83
2016-08-27T23:18:41.440Z,88.96
2016-08-27T23:19:41.439Z,89.06
2016-08-27T23:20:41.445Z,88.96
2016-08-27T23:21:41.364Z,89.15
2016-08-27T23:22:41.432Z,89.93
2016-08-27T23:23:41.366Z,91.09
2016-08-27T23:24:41.365Z,91.72
2016-08-27T23:25:41.363Z,92.21
2016-08-27T23:26:41.452Z,92.59
2016-08-27T23:27:41.449Z,93.27
2016-08-27T23:28:42.070Z,93.71
2016-08-27T23:29:41.443Z,93.41
2016-08-27T23:30:41.381Z,93.32
2016-08-27T23:31:41.377Z,92.74
2016-08-27T23:32:41.379Z,87.33
2016-08-27T23:33:41.455Z,88.13
2016-08-27T23:34:41.453Z,87.81
2016-08-27T23:35:41.459Z,87.03
2016-08-27T23:36:41.467Z,86.3
2016-08-27T23:37:41.457Z,86.1
2016-08-27T23:38:41.454Z,86.59
2016-08-27T23:39:41.417Z,85.42
2016-08-27T23:40:41.383Z,86.01
2016-08-27T23:41:41.470Z,86.4
2016-08-27T23:42:41.391Z,88.04
2016-08-27T23:43:41.393Z,88.91
2016-08-27T23:45:41.547Z,91.38
2016-08-27T23:46:41.436Z,91.38
2016-08-27T23:47:41.499Z,92.35
2016-08-27T23:48:41.508Z,93.17
2016-08-27T23:49:41.432Z,92.59
2016-08-27T23:50:41.427Z,94.33
2016-08-27T23:51:41.417Z,93.66
2016-08-27T23:52:41.501Z,93.9
2016-08-27T23:53:41.426Z,93.51
2016-08-27T23:54:41.496Z,92.45
2016-08-27T23:55:41.412Z,92.93
2016-08-27T23:56:41.502Z,92.01
2016-08-27T23:57:41.420Z,92.3
2016-08-27T23:58:41.508Z,91.91
2016-08-27T23:59:41.417Z,91.82
